sensor_id;sensor_type;location;lat;lon;timestamp;P1;durP1;ratioP1;P2;durP2;ratioP2
36423;SDS011;22458;45.328;9.514;2023-07-13T00:00:03;4.38;;;1.30;;
36423;SDS011;22458;45.328;9.514;2023-07-13T00:02:38;2.88;;;1.15;;
36423;SDS011;22458;45.328;9.514;2023-07-13T00:05:04;1.65;;;1.10;;
36423;SDS011;22458;45.328;9.514;2023-07-13T00:07:30;2.30;;;1.25;;
36423;SDS011;22458;45.328;9.514;2023-07-13T00:09:56;1.88;;;1.30;;
36423;SDS011;22458;45.328;9.514;2023-07-13T00:12:24;2.58;;;1.20;;
36423;SDS011;22458;45.328;9.514;2023-07-13T00:14:50;1.73;;;1.10;;
36423;SDS011;22458;45.328;9.514;2023-07-13T00:17:16;2.42;;;1.10;;
36423;SDS011;22458;45.328;9.514;2023-07-13T00:19:42;2.67;;;1.27;;
36423;SDS011;22458;45.328;9.514;2023-07-13T00:22:07;2.20;;;1.30;;
36423;SDS011;22458;45.328;9.514;2023-07-13T00:24:33;4.53;;;1.48;;
36423;SDS011;22458;45.328;9.514;2023-07-13T00:27:01;3.38;;;1.40;;
36423;SDS011;22458;45.328;9.514;2023-07-13T00:29:27;4.30;;;1.55;;
36423;SDS011;22458;45.328;9.514;2023-07-13T00:31:52;3.53;;;1.25;;
36423;SDS011;22458;45.328;9.514;2023-07-13T00:34:18;3.45;;;1.50;;
36423;SDS011;22458;45.328;9.514;2023-07-13T00:36:44;2.97;;;1.40;;
36423;SDS011;22458;45.328;9.514;2023-07-13T00:39:09;4.20;;;1.40;;
36423;SDS011;22458;45.328;9.514;2023-07-13T00:41:35;2.75;;;1.30;;
36423;SDS011;22458;45.328;9.514;2023-07-13T00:44:02;2.72;;;1.35;;
36423;SDS011;22458;45.328;9.514;2023-07-13T00:46:30;2.65;;;1.40;;
36423;SDS011;22458;45.328;9.514;2023-07-13T00:48:59;4.32;;;1.33;;
36423;SDS011;22458;45.328;9.514;2023-07-13T00:51:30;3.33;;;1.40;;
36423;SDS011;22458;45.328;9.514;2023-07-13T00:54:00;3.45;;;1.50;;
36423;SDS011;22458;45.328;9.514;2023-07-13T00:56:30;2.70;;;1.65;;
36423;SDS011;22458;45.328;9.514;2023-07-13T00:58:59;3.25;;;1.52;;
36423;SDS011;22458;45.328;9.514;2023-07-13T01:01:27;4.43;;;1.60;;
36423;SDS011;22458;45.328;9.514;2023-07-13T01:03:53;4.88;;;1.63;;
36423;SDS011;22458;45.328;9.514;2023-07-13T01:06:19;4.05;;;1.75;;
36423;SDS011;22458;45.328;9.514;2023-07-13T01:08:44;3.47;;;1.45;;
36423;SDS011;22458;45.328;9.514;2023-07-13T01:11:10;2.60;;;1.40;;
36423;SDS011;22458;45.328;9.514;2023-07-13T01:13:36;2.00;;;1.45;;
36423;SDS011;22458;45.328;9.514;2023-07-13T01:16:11;5.97;;;2.00;;
36423;SDS011;22458;45.328;9.514;2023-07-13T01:18:43;3.22;;;1.73;;
36423;SDS011;22458;45.328;9.514;2023-07-13T01:21:09;3.92;;;1.77;;
36423;SDS011;22458;45.328;9.514;2023-07-13T01:23:35;3.70;;;1.67;;
36423;SDS011;22458;45.328;9.514;2023-07-13T01:26:01;3.83;;;1.55;;
36423;SDS011;22458;45.328;9.514;2023-07-13T01:28:28;2.80;;;1.42;;
36423;SDS011;22458;45.328;9.514;2023-07-13T01:30:55;3.22;;;1.50;;
36423;SDS011;22458;45.328;9.514;2023-07-13T01:33:22;2.55;;;1.60;;
36423;SDS011;22458;45.328;9.514;2023-07-13T01:35:49;2.53;;;1.45;;
36423;SDS011;22458;45.328;9.514;2023-07-13T01:38:16;4.88;;;1.83;;
36423;SDS011;22458;45.328;9.514;2023-07-13T01:40:44;2.58;;;1.58;;
36423;SDS011;22458;45.328;9.514;2023-07-13T01:43:10;2.40;;;1.65;;
36423;SDS011;22458;45.328;9.514;2023-07-13T01:45:36;7.80;;;2.03;;
36423;SDS011;22458;45.328;9.514;2023-07-13T01:48:01;3.08;;;1.60;;
36423;SDS011;22458;45.328;9.514;2023-07-13T01:50:27;3.40;;;1.63;;
36423;SDS011;22458;45.328;9.514;2023-07-13T01:52:53;4.53;;;1.90;;
36423;SDS011;22458;45.328;9.514;2023-07-13T01:55:20;4.22;;;1.52;;
36423;SDS011;22458;45.328;9.514;2023-07-13T01:57:45;4.97;;;1.52;;
36423;SDS011;22458;45.328;9.514;2023-07-13T02:00:13;2.00;;;1.33;;
36423;SDS011;22458;45.328;9.514;2023-07-13T02:02:45;3.28;;;1.77;;
36423;SDS011;22458;45.328;9.514;2023-07-13T02:05:11;2.97;;;1.92;;
36423;SDS011;22458;45.328;9.514;2023-07-13T02:07:38;5.78;;;2.10;;
36423;SDS011;22458;45.328;9.514;2023-07-13T02:10:04;3.65;;;1.75;;
36423;SDS011;22458;45.328;9.514;2023-07-13T02:12:31;4.75;;;2.22;;
36423;SDS011;22458;45.328;9.514;2023-07-13T02:14:57;4.15;;;2.10;;
36423;SDS011;22458;45.328;9.514;2023-07-13T02:17:23;5.10;;;1.73;;
36423;SDS011;22458;45.328;9.514;2023-07-13T02:19:48;3.42;;;2.28;;
36423;SDS011;22458;45.328;9.514;2023-07-13T02:22:14;4.03;;;2.28;;
36423;SDS011;22458;45.328;9.514;2023-07-13T02:24:40;2.55;;;1.92;;
36423;SDS011;22458;45.328;9.514;2023-07-13T02:27:06;4.72;;;2.33;;
36423;SDS011;22458;45.328;9.514;2023-07-13T02:29:32;3.70;;;2.53;;
36423;SDS011;22458;45.328;9.514;2023-07-13T02:31:57;5.45;;;2.38;;
36423;SDS011;22458;45.328;9.514;2023-07-13T02:34:23;4.70;;;2.58;;
36423;SDS011;22458;45.328;9.514;2023-07-13T02:36:49;3.92;;;2.65;;
36423;SDS011;22458;45.328;9.514;2023-07-13T02:39:15;5.22;;;2.75;;
36423;SDS011;22458;45.328;9.514;2023-07-13T02:41:41;5.80;;;3.05;;
36423;SDS011;22458;45.328;9.514;2023-07-13T02:44:06;4.53;;;2.47;;
36423;SDS011;22458;45.328;9.514;2023-07-13T02:46:34;3.55;;;2.50;;
36423;SDS011;22458;45.328;9.514;2023-07-13T02:49:00;4.97;;;2.65;;
36423;SDS011;22458;45.328;9.514;2023-07-13T02:51:27;6.45;;;2.90;;
36423;SDS011;22458;45.328;9.514;2023-07-13T02:53:53;3.85;;;2.78;;
36423;SDS011;22458;45.328;9.514;2023-07-13T02:56:23;6.78;;;2.78;;
36423;SDS011;22458;45.328;9.514;2023-07-13T02:58:50;3.85;;;3.30;;
36423;SDS011;22458;45.328;9.514;2023-07-13T03:01:16;5.88;;;2.83;;
36423;SDS011;22458;45.328;9.514;2023-07-13T03:03:48;5.47;;;2.85;;
36423;SDS011;22458;45.328;9.514;2023-07-13T03:06:14;5.10;;;2.67;;
36423;SDS011;22458;45.328;9.514;2023-07-13T03:08:46;4.07;;;3.38;;
36423;SDS011;22458;45.328;9.514;2023-07-13T03:11:15;6.50;;;3.30;;
36423;SDS011;22458;45.328;9.514;2023-07-13T03:13:45;7.05;;;3.40;;
36423;SDS011;22458;45.328;9.514;2023-07-13T03:16:12;3.92;;;2.92;;
36423;SDS011;22458;45.328;9.514;2023-07-13T03:18:41;4.47;;;3.22;;
36423;SDS011;22458;45.328;9.514;2023-07-13T03:21:09;3.65;;;2.78;;
36423;SDS011;22458;45.328;9.514;2023-07-13T03:23:35;5.85;;;3.60;;
36423;SDS011;22458;45.328;9.514;2023-07-13T03:26:03;6.45;;;3.50;;
36423;SDS011;22458;45.328;9.514;2023-07-13T03:31:17;6.78;;;3.60;;
36423;SDS011;22458;45.328;9.514;2023-07-13T03:33:48;5.57;;;3.42;;
36423;SDS011;22458;45.328;9.514;2023-07-13T03:36:17;5.90;;;3.45;;
36423;SDS011;22458;45.328;9.514;2023-07-13T03:38:46;7.90;;;3.40;;
36423;SDS011;22458;45.328;9.514;2023-07-13T03:41:16;5.43;;;3.72;;
36423;SDS011;22458;45.328;9.514;2023-07-13T03:43:43;6.63;;;4.03;;
36423;SDS011;22458;45.328;9.514;2023-07-13T03:46:10;5.05;;;3.80;;
36423;SDS011;22458;45.328;9.514;2023-07-13T03:48:36;6.18;;;3.53;;
36423;SDS011;22458;45.328;9.514;2023-07-13T03:51:05;8.05;;;3.80;;
36423;SDS011;22458;45.328;9.514;2023-07-13T03:53:30;6.78;;;3.45;;
36423;SDS011;22458;45.328;9.514;2023-07-13T03:55:56;4.53;;;3.60;;
36423;SDS011;22458;45.328;9.514;2023-07-13T04:01:06;5.78;;;3.63;;
36423;SDS011;22458;45.328;9.514;2023-07-13T04:03:33;5.85;;;3.38;;
36423;SDS011;22458;45.328;9.514;2023-07-13T04:05:59;3.92;;;3.13;;
36423;SDS011;22458;45.328;9.514;2023-07-13T04:08:30;6.78;;;4.15;;
36423;SDS011;22458;45.328;9.514;2023-07-13T04:10:58;6.47;;;3.38;;
36423;SDS011;22458;45.328;9.514;2023-07-13T04:13:25;6.55;;;3.75;;
36423;SDS011;22458;45.328;9.514;2023-07-13T04:15:51;5.80;;;3.33;;
36423;SDS011;22458;45.328;9.514;2023-07-13T04:18:18;5.53;;;3.38;;
36423;SDS011;22458;45.328;9.514;2023-07-13T04:20:47;4.43;;;3.47;;
36423;SDS011;22458;45.328;9.514;2023-07-13T04:23:14;4.13;;;3.05;;
36423;SDS011;22458;45.328;9.514;2023-07-13T04:25:45;4.70;;;3.35;;
36423;SDS011;22458;45.328;9.514;2023-07-13T04:28:11;5.22;;;3.70;;
36423;SDS011;22458;45.328;9.514;2023-07-13T04:30:38;5.53;;;3.05;;
36423;SDS011;22458;45.328;9.514;2023-07-13T04:33:05;5.28;;;3.17;;
36423;SDS011;22458;45.328;9.514;2023-07-13T04:35:31;6.00;;;3.35;;
36423;SDS011;22458;45.328;9.514;2023-07-13T04:37:56;7.65;;;3.38;;
36423;SDS011;22458;45.328;9.514;2023-07-13T04:40:22;4.80;;;2.92;;
36423;SDS011;22458;45.328;9.514;2023-07-13T04:42:48;4.05;;;3.00;;
36423;SDS011;22458;45.328;9.514;2023-07-13T04:45:14;4.63;;;3.67;;
36423;SDS011;22458;45.328;9.514;2023-07-13T04:47:40;5.25;;;3.65;;
36423;SDS011;22458;45.328;9.514;2023-07-13T04:50:07;6.93;;;3.80;;
36423;SDS011;22458;45.328;9.514;2023-07-13T04:52:33;5.15;;;3.15;;
36423;SDS011;22458;45.328;9.514;2023-07-13T04:54:59;6.07;;;3.60;;
36423;SDS011;22458;45.328;9.514;2023-07-13T04:57:26;6.80;;;3.03;;
36423;SDS011;22458;45.328;9.514;2023-07-13T04:59:52;5.40;;;3.22;;
36423;SDS011;22458;45.328;9.514;2023-07-13T05:02:20;8.15;;;3.53;;
36423;SDS011;22458;45.328;9.514;2023-07-13T05:04:47;6.20;;;3.67;;
36423;SDS011;22458;45.328;9.514;2023-07-13T05:07:13;5.00;;;3.10;;
36423;SDS011;22458;45.328;9.514;2023-07-13T05:09:39;7.57;;;3.88;;
36423;SDS011;22458;45.328;9.514;2023-07-13T05:12:06;5.50;;;3.20;;
36423;SDS011;22458;45.328;9.514;2023-07-13T05:14:33;5.82;;;3.05;;
36423;SDS011;22458;45.328;9.514;2023-07-13T05:16:59;6.03;;;2.60;;
36423;SDS011;22458;45.328;9.514;2023-07-13T05:19:25;5.00;;;2.95;;
36423;SDS011;22458;45.328;9.514;2023-07-13T05:21:50;5.47;;;3.72;;
36423;SDS011;22458;45.328;9.514;2023-07-13T05:24:16;4.65;;;2.92;;
36423;SDS011;22458;45.328;9.514;2023-07-13T05:26:42;4.68;;;2.20;;
36423;SDS011;22458;45.328;9.514;2023-07-13T05:29:07;5.65;;;2.42;;
36423;SDS011;22458;45.328;9.514;2023-07-13T05:31:33;3.83;;;2.33;;
36423;SDS011;22458;45.328;9.514;2023-07-13T05:33:59;5.20;;;2.65;;
36423;SDS011;22458;45.328;9.514;2023-07-13T05:36:25;7.10;;;3.33;;
36423;SDS011;22458;45.328;9.514;2023-07-13T05:38:50;7.25;;;3.90;;
36423;SDS011;22458;45.328;9.514;2023-07-13T05:41:16;6.93;;;4.25;;
36423;SDS011;22458;45.328;9.514;2023-07-13T05:43:42;5.75;;;4.20;;
36423;SDS011;22458;45.328;9.514;2023-07-13T05:46:07;5.93;;;3.83;;
36423;SDS011;22458;45.328;9.514;2023-07-13T05:48:33;7.90;;;3.83;;
36423;SDS011;22458;45.328;9.514;2023-07-13T05:50:59;7.35;;;3.55;;
36423;SDS011;22458;45.328;9.514;2023-07-13T05:53:26;6.63;;;3.97;;
36423;SDS011;22458;45.328;9.514;2023-07-13T05:55:53;6.22;;;3.88;;
36423;SDS011;22458;45.328;9.514;2023-07-13T05:58:20;7.60;;;4.78;;
36423;SDS011;22458;45.328;9.514;2023-07-13T06:00:46;7.50;;;4.50;;
36423;SDS011;22458;45.328;9.514;2023-07-13T06:03:13;5.20;;;3.92;;
36423;SDS011;22458;45.328;9.514;2023-07-13T06:05:39;5.05;;;3.92;;
36423;SDS011;22458;45.328;9.514;2023-07-13T06:08:05;6.05;;;3.63;;
36423;SDS011;22458;45.328;9.514;2023-07-13T06:10:32;6.72;;;4.13;;
36423;SDS011;22458;45.328;9.514;2023-07-13T06:12:58;6.47;;;4.88;;
36423;SDS011;22458;45.328;9.514;2023-07-13T06:15:24;6.55;;;4.57;;
36423;SDS011;22458;45.328;9.514;2023-07-13T06:17:50;8.43;;;4.93;;
36423;SDS011;22458;45.328;9.514;2023-07-13T06:20:16;6.90;;;4.90;;
36423;SDS011;22458;45.328;9.514;2023-07-13T06:22:41;8.05;;;4.68;;
36423;SDS011;22458;45.328;9.514;2023-07-13T06:25:07;9.85;;;5.13;;
36423;SDS011;22458;45.328;9.514;2023-07-13T06:27:33;4.90;;;4.18;;
36423;SDS011;22458;45.328;9.514;2023-07-13T06:29:59;6.60;;;4.28;;
36423;SDS011;22458;45.328;9.514;2023-07-13T06:32:25;7.35;;;4.57;;
36423;SDS011;22458;45.328;9.514;2023-07-13T06:34:51;7.88;;;4.97;;
36423;SDS011;22458;45.328;9.514;2023-07-13T06:37:17;7.70;;;5.38;;
36423;SDS011;22458;45.328;9.514;2023-07-13T06:39:43;7.50;;;4.30;;
36423;SDS011;22458;45.328;9.514;2023-07-13T06:42:09;5.43;;;4.35;;
36423;SDS011;22458;45.328;9.514;2023-07-13T06:44:36;12.30;;;5.18;;
36423;SDS011;22458;45.328;9.514;2023-07-13T06:47:01;6.68;;;4.75;;
36423;SDS011;22458;45.328;9.514;2023-07-13T06:49:27;5.53;;;4.15;;
36423;SDS011;22458;45.328;9.514;2023-07-13T06:51:53;10.88;;;3.78;;
36423;SDS011;22458;45.328;9.514;2023-07-13T06:54:19;12.55;;;4.65;;
36423;SDS011;22458;45.328;9.514;2023-07-13T06:56:44;7.53;;;3.65;;
36423;SDS011;22458;45.328;9.514;2023-07-13T06:59:10;8.27;;;4.63;;
36423;SDS011;22458;45.328;9.514;2023-07-13T07:01:36;7.75;;;4.28;;
36423;SDS011;22458;45.328;9.514;2023-07-13T07:04:03;5.00;;;3.60;;
36423;SDS011;22458;45.328;9.514;2023-07-13T07:06:29;5.00;;;3.85;;
36423;SDS011;22458;45.328;9.514;2023-07-13T07:08:55;5.82;;;3.60;;
36423;SDS011;22458;45.328;9.514;2023-07-13T07:11:24;7.13;;;4.63;;
36423;SDS011;22458;45.328;9.514;2023-07-13T07:13:51;6.88;;;4.30;;
36423;SDS011;22458;45.328;9.514;2023-07-13T07:16:18;6.40;;;4.35;;
36423;SDS011;22458;45.328;9.514;2023-07-13T07:18:45;7.53;;;3.65;;
36423;SDS011;22458;45.328;9.514;2023-07-13T07:21:12;6.38;;;3.83;;
36423;SDS011;22458;45.328;9.514;2023-07-13T07:23:38;5.82;;;3.97;;
36423;SDS011;22458;45.328;9.514;2023-07-13T07:26:04;5.20;;;3.65;;
36423;SDS011;22458;45.328;9.514;2023-07-13T07:28:30;6.40;;;3.53;;
36423;SDS011;22458;45.328;9.514;2023-07-13T07:30:57;5.82;;;4.22;;
36423;SDS011;22458;45.328;9.514;2023-07-13T07:33:23;5.93;;;3.22;;
36423;SDS011;22458;45.328;9.514;2023-07-13T07:35:50;4.45;;;2.80;;
36423;SDS011;22458;45.328;9.514;2023-07-13T07:38:16;16.98;;;3.40;;
36423;SDS011;22458;45.328;9.514;2023-07-13T07:40:42;5.78;;;3.08;;
36423;SDS011;22458;45.328;9.514;2023-07-13T07:43:09;6.20;;;3.05;;
36423;SDS011;22458;45.328;9.514;2023-07-13T07:45:36;3.90;;;2.75;;
36423;SDS011;22458;45.328;9.514;2023-07-13T07:48:03;5.72;;;2.92;;
36423;SDS011;22458;45.328;9.514;2023-07-13T07:50:30;5.38;;;2.80;;
36423;SDS011;22458;45.328;9.514;2023-07-13T07:52:57;6.25;;;3.35;;
36423;SDS011;22458;45.328;9.514;2023-07-13T07:55:23;6.32;;;3.08;;
36423;SDS011;22458;45.328;9.514;2023-07-13T07:57:50;7.03;;;4.28;;
36423;SDS011;22458;45.328;9.514;2023-07-13T08:00:16;5.50;;;3.72;;
36423;SDS011;22458;45.328;9.514;2023-07-13T08:02:42;5.65;;;3.88;;
36423;SDS011;22458;45.328;9.514;2023-07-13T08:05:09;7.25;;;3.33;;
36423;SDS011;22458;45.328;9.514;2023-07-13T08:07:36;6.90;;;3.58;;
36423;SDS011;22458;45.328;9.514;2023-07-13T08:10:02;6.45;;;3.55;;
36423;SDS011;22458;45.328;9.514;2023-07-13T08:12:29;6.22;;;4.13;;
36423;SDS011;22458;45.328;9.514;2023-07-13T08:14:54;7.13;;;3.45;;
36423;SDS011;22458;45.328;9.514;2023-07-13T08:17:23;5.40;;;3.22;;
36423;SDS011;22458;45.328;9.514;2023-07-13T08:19:50;7.20;;;3.97;;
36423;SDS011;22458;45.328;9.514;2023-07-13T08:22:16;6.60;;;3.20;;
36423;SDS011;22458;45.328;9.514;2023-07-13T08:24:42;6.63;;;4.68;;
36423;SDS011;22458;45.328;9.514;2023-07-13T08:27:08;6.70;;;3.78;;
36423;SDS011;22458;45.328;9.514;2023-07-13T08:29:36;7.30;;;4.23;;
36423;SDS011;22458;45.328;9.514;2023-07-13T08:32:03;7.38;;;4.32;;
36423;SDS011;22458;45.328;9.514;2023-07-13T08:34:31;6.68;;;4.00;;
36423;SDS011;22458;45.328;9.514;2023-07-13T08:36:56;4.93;;;3.80;;
36423;SDS011;22458;45.328;9.514;2023-07-13T08:39:22;4.45;;;3.30;;
36423;SDS011;22458;45.328;9.514;2023-07-13T08:41:49;6.18;;;3.42;;
36423;SDS011;22458;45.328;9.514;2023-07-13T08:44:20;7.22;;;4.10;;
36423;SDS011;22458;45.328;9.514;2023-07-13T08:46:55;7.18;;;4.30;;
36423;SDS011;22458;45.328;9.514;2023-07-13T08:49:25;8.00;;;3.83;;
36423;SDS011;22458;45.328;9.514;2023-07-13T08:52:00;3.85;;;3.28;;
36423;SDS011;22458;45.328;9.514;2023-07-13T08:54:50;5.55;;;2.97;;
36423;SDS011;22458;45.328;9.514;2023-07-13T08:57:24;4.97;;;3.10;;
36423;SDS011;22458;45.328;9.514;2023-07-13T08:59:56;4.45;;;2.78;;
36423;SDS011;22458;45.328;9.514;2023-07-13T09:02:28;5.55;;;3.10;;
36423;SDS011;22458;45.328;9.514;2023-07-13T09:05:13;5.07;;;2.75;;
36423;SDS011;22458;45.328;9.514;2023-07-13T09:07:45;5.90;;;2.83;;
36423;SDS011;22458;45.328;9.514;2023-07-13T09:10:35;3.28;;;1.95;;
36423;SDS011;22458;45.328;9.514;2023-07-13T09:16:10;4.22;;;2.40;;
36423;SDS011;22458;45.328;9.514;2023-07-13T09:18:43;5.05;;;2.17;;
36423;SDS011;22458;45.328;9.514;2023-07-13T09:21:26;6.15;;;2.47;;
36423;SDS011;22458;45.328;9.514;2023-07-13T09:24:03;3.33;;;2.00;;
36423;SDS011;22458;45.328;9.514;2023-07-13T09:26:48;7.30;;;4.47;;
36423;SDS011;22458;45.328;9.514;2023-07-13T09:29:18;7.68;;;5.50;;
36423;SDS011;22458;45.328;9.514;2023-07-13T09:31:52;7.50;;;3.30;;
36423;SDS011;22458;45.328;9.514;2023-07-13T09:34:23;4.88;;;2.17;;
36423;SDS011;22458;45.328;9.514;2023-07-13T09:36:49;3.20;;;2.35;;
36423;SDS011;22458;45.328;9.514;2023-07-13T09:39:29;5.45;;;2.55;;
36423;SDS011;22458;45.328;9.514;2023-07-13T09:44:36;3.85;;;2.33;;
36423;SDS011;22458;45.328;9.514;2023-07-13T09:47:21;5.65;;;2.58;;
36423;SDS011;22458;45.328;9.514;2023-07-13T09:49:58;4.25;;;1.90;;
36423;SDS011;22458;45.328;9.514;2023-07-13T09:52:39;3.55;;;1.80;;
36423;SDS011;22458;45.328;9.514;2023-07-13T09:55:29;3.97;;;2.25;;
36423;SDS011;22458;45.328;9.514;2023-07-13T09:57:57;2.70;;;1.80;;
36423;SDS011;22458;45.328;9.514;2023-07-13T10:00:29;6.82;;;1.88;;
36423;SDS011;22458;45.328;9.514;2023-07-13T10:02:58;4.78;;;2.20;;
36423;SDS011;22458;45.328;9.514;2023-07-13T10:05:28;3.45;;;2.38;;
36423;SDS011;22458;45.328;9.514;2023-07-13T10:08:04;4.93;;;2.35;;
36423;SDS011;22458;45.328;9.514;2023-07-13T10:10:33;7.63;;;2.67;;
36423;SDS011;22458;45.328;9.514;2023-07-13T10:13:01;2.77;;;2.17;;
36423;SDS011;22458;45.328;9.514;2023-07-13T10:15:29;5.35;;;3.13;;
36423;SDS011;22458;45.328;9.514;2023-07-13T10:17:56;6.18;;;2.88;;
36423;SDS011;22458;45.328;9.514;2023-07-13T10:20:23;3.22;;;2.63;;
36423;SDS011;22458;45.328;9.514;2023-07-13T10:25:43;3.42;;;2.00;;
36423;SDS011;22458;45.328;9.514;2023-07-13T10:28:30;4.70;;;2.28;;
36423;SDS011;22458;45.328;9.514;2023-07-13T10:31:00;5.63;;;1.70;;
36423;SDS011;22458;45.328;9.514;2023-07-13T10:33:27;3.92;;;1.35;;
36423;SDS011;22458;45.328;9.514;2023-07-13T10:36:11;2.70;;;1.42;;
36423;SDS011;22458;45.328;9.514;2023-07-13T10:38:44;2.13;;;1.50;;
36423;SDS011;22458;45.328;9.514;2023-07-13T10:41:17;4.18;;;1.30;;
36423;SDS011;22458;45.328;9.514;2023-07-13T10:43:46;2.10;;;1.10;;
36423;SDS011;22458;45.328;9.514;2023-07-13T10:46:17;2.50;;;1.05;;
36423;SDS011;22458;45.328;9.514;2023-07-13T10:48:49;3.58;;;1.27;;
36423;SDS011;22458;45.328;9.514;2023-07-13T10:51:20;3.35;;;1.45;;
36423;SDS011;22458;45.328;9.514;2023-07-13T10:53:47;2.60;;;1.40;;
36423;SDS011;22458;45.328;9.514;2023-07-13T10:56:34;4.05;;;1.75;;
36423;SDS011;22458;45.328;9.514;2023-07-13T10:59:01;6.60;;;1.55;;
36423;SDS011;22458;45.328;9.514;2023-07-13T11:01:51;4.57;;;1.80;;
36423;SDS011;22458;45.328;9.514;2023-07-13T11:04:21;2.83;;;1.70;;
36423;SDS011;22458;45.328;9.514;2023-07-13T11:06:50;5.93;;;1.60;;
36423;SDS011;22458;45.328;9.514;2023-07-13T11:09:32;3.38;;;1.73;;
36423;SDS011;22458;45.328;9.514;2023-07-13T11:15:00;2.10;;;1.65;;
36423;SDS011;22458;45.328;9.514;2023-07-13T11:28:04;4.65;;;1.75;;
36423;SDS011;22458;45.328;9.514;2023-07-13T11:33:28;2.38;;;1.63;;
36423;SDS011;22458;45.328;9.514;2023-07-13T11:36:05;5.32;;;1.70;;
36423;SDS011;22458;45.328;9.514;2023-07-13T11:41:10;6.72;;;2.85;;
36423;SDS011;22458;45.328;9.514;2023-07-13T11:43:38;5.28;;;2.50;;
36423;SDS011;22458;45.328;9.514;2023-07-13T11:48:47;7.25;;;2.70;;
36423;SDS011;22458;45.328;9.514;2023-07-13T11:53:56;4.30;;;2.75;;
36423;SDS011;22458;45.328;9.514;2023-07-13T11:56:44;5.13;;;2.80;;
36423;SDS011;22458;45.328;9.514;2023-07-13T11:59:11;5.68;;;2.58;;
36423;SDS011;22458;45.328;9.514;2023-07-13T12:01:52;4.05;;;2.95;;
36423;SDS011;22458;45.328;9.514;2023-07-13T12:04:27;3.97;;;2.08;;
36423;SDS011;22458;45.328;9.514;2023-07-13T12:07:06;4.15;;;2.47;;
36423;SDS011;22458;45.328;9.514;2023-07-13T12:09:39;4.50;;;2.30;;
36423;SDS011;22458;45.328;9.514;2023-07-13T12:12:10;3.33;;;1.88;;
36423;SDS011;22458;45.328;9.514;2023-07-13T12:14:42;5.25;;;2.40;;
36423;SDS011;22458;45.328;9.514;2023-07-13T12:17:20;4.85;;;2.15;;
36423;SDS011;22458;45.328;9.514;2023-07-13T12:19:49;3.58;;;2.13;;
36423;SDS011;22458;45.328;9.514;2023-07-13T12:22:17;3.47;;;2.30;;
36423;SDS011;22458;45.328;9.514;2023-07-13T12:24:45;4.68;;;2.22;;
36423;SDS011;22458;45.328;9.514;2023-07-13T12:27:22;5.53;;;2.08;;
36423;SDS011;22458;45.328;9.514;2023-07-13T12:29:52;3.22;;;1.70;;
36423;SDS011;22458;45.328;9.514;2023-07-13T12:32:30;3.97;;;1.95;;
36423;SDS011;22458;45.328;9.514;2023-07-13T12:37:42;3.40;;;1.85;;
36423;SDS011;22458;45.328;9.514;2023-07-13T12:40:16;5.50;;;1.73;;
36423;SDS011;22458;45.328;9.514;2023-07-13T12:42:48;4.07;;;1.75;;
36423;SDS011;22458;45.328;9.514;2023-07-13T12:45:21;4.78;;;2.17;;
36423;SDS011;22458;45.328;9.514;2023-07-13T12:47:52;3.63;;;1.95;;
36423;SDS011;22458;45.328;9.514;2023-07-13T12:50:22;6.68;;;2.30;;
36423;SDS011;22458;45.328;9.514;2023-07-13T12:55:17;4.57;;;2.10;;
36423;SDS011;22458;45.328;9.514;2023-07-13T12:57:47;3.80;;;2.63;;
36423;SDS011;22458;45.328;9.514;2023-07-13T13:00:36;4.43;;;1.83;;
36423;SDS011;22458;45.328;9.514;2023-07-13T13:03:23;4.88;;;2.10;;
36423;SDS011;22458;45.328;9.514;2023-07-13T13:06:02;4.45;;;1.85;;
36423;SDS011;22458;45.328;9.514;2023-07-13T13:08:30;3.25;;;1.83;;
36423;SDS011;22458;45.328;9.514;2023-07-13T13:10:57;2.47;;;1.47;;
36423;SDS011;22458;45.328;9.514;2023-07-13T13:13:23;3.00;;;1.80;;
36423;SDS011;22458;45.328;9.514;2023-07-13T13:15:49;3.83;;;1.30;;
36423;SDS011;22458;45.328;9.514;2023-07-13T13:18:16;5.10;;;2.25;;
36423;SDS011;22458;45.328;9.514;2023-07-13T13:20:47;5.07;;;2.13;;
36423;SDS011;22458;45.328;9.514;2023-07-13T13:23:14;1.95;;;1.42;;
36423;SDS011;22458;45.328;9.514;2023-07-13T13:28:14;2.38;;;1.30;;
36423;SDS011;22458;45.328;9.514;2023-07-13T13:30:42;2.28;;;1.23;;
36423;SDS011;22458;45.328;9.514;2023-07-13T13:33:11;6.47;;;1.80;;
36423;SDS011;22458;45.328;9.514;2023-07-13T13:35:38;6.07;;;1.73;;
36423;SDS011;22458;45.328;9.514;2023-07-13T13:38:25;3.20;;;1.95;;
36423;SDS011;22458;45.328;9.514;2023-07-13T13:40:52;5.25;;;2.13;;
36423;SDS011;22458;45.328;9.514;2023-07-13T13:43:20;2.45;;;1.70;;
36423;SDS011;22458;45.328;9.514;2023-07-13T13:45:55;4.72;;;1.73;;
36423;SDS011;22458;45.328;9.514;2023-07-13T13:48:40;5.55;;;2.35;;
36423;SDS011;22458;45.328;9.514;2023-07-13T13:51:21;3.72;;;1.95;;
36423;SDS011;22458;45.328;9.514;2023-07-13T13:53:48;4.85;;;2.25;;
36423;SDS011;22458;45.328;9.514;2023-07-13T13:56:15;3.67;;;2.33;;
36423;SDS011;22458;45.328;9.514;2023-07-13T13:58:42;3.33;;;1.50;;
36423;SDS011;22458;45.328;9.514;2023-07-13T14:01:12;3.50;;;2.05;;
36423;SDS011;22458;45.328;9.514;2023-07-13T14:03:43;5.72;;;2.33;;
36423;SDS011;22458;45.328;9.514;2023-07-13T14:06:11;3.90;;;1.80;;
36423;SDS011;22458;45.328;9.514;2023-07-13T14:08:41;6.22;;;1.85;;
36423;SDS011;22458;45.328;9.514;2023-07-13T14:11:11;2.83;;;1.60;;
36423;SDS011;22458;45.328;9.514;2023-07-13T14:13:48;3.25;;;1.98;;
36423;SDS011;22458;45.328;9.514;2023-07-13T14:16:16;5.00;;;2.03;;
36423;SDS011;22458;45.328;9.514;2023-07-13T14:18:45;3.25;;;1.88;;
36423;SDS011;22458;45.328;9.514;2023-07-13T14:21:18;2.60;;;1.75;;
36423;SDS011;22458;45.328;9.514;2023-07-13T14:23:45;5.88;;;2.00;;
36423;SDS011;22458;45.328;9.514;2023-07-13T14:26:31;2.40;;;1.90;;
36423;SDS011;22458;45.328;9.514;2023-07-13T14:29:01;6.95;;;2.67;;
36423;SDS011;22458;45.328;9.514;2023-07-13T14:31:30;6.57;;;2.72;;
36423;SDS011;22458;45.328;9.514;2023-07-13T14:33:56;5.03;;;2.10;;
36423;SDS011;22458;45.328;9.514;2023-07-13T14:41:15;4.22;;;2.17;;
36423;SDS011;22458;45.328;9.514;2023-07-13T14:43:41;8.05;;;2.42;;
36423;SDS011;22458;45.328;9.514;2023-07-13T14:46:08;5.50;;;2.75;;
36423;SDS011;22458;45.328;9.514;2023-07-13T14:48:47;5.57;;;2.20;;
36423;SDS011;22458;45.328;9.514;2023-07-13T14:51:14;5.35;;;2.58;;
36423;SDS011;22458;45.328;9.514;2023-07-13T14:53:40;3.92;;;1.70;;
36423;SDS011;22458;45.328;9.514;2023-07-13T14:56:10;6.70;;;2.22;;
36423;SDS011;22458;45.328;9.514;2023-07-13T14:58:36;5.10;;;2.53;;
36423;SDS011;22458;45.328;9.514;2023-07-13T15:01:08;4.97;;;2.40;;
36423;SDS011;22458;45.328;9.514;2023-07-13T15:03:39;6.72;;;3.88;;
36423;SDS011;22458;45.328;9.514;2023-07-13T15:06:10;5.93;;;2.53;;
36423;SDS011;22458;45.328;9.514;2023-07-13T15:08:37;5.82;;;2.05;;
36423;SDS011;22458;45.328;9.514;2023-07-13T15:11:03;5.18;;;2.00;;
36423;SDS011;22458;45.328;9.514;2023-07-13T15:13:30;4.22;;;2.30;;
36423;SDS011;22458;45.328;9.514;2023-07-13T15:15:55;7.60;;;2.40;;
36423;SDS011;22458;45.328;9.514;2023-07-13T15:18:22;5.78;;;2.78;;
36423;SDS011;22458;45.328;9.514;2023-07-13T15:20:50;5.68;;;2.17;;
36423;SDS011;22458;45.328;9.514;2023-07-13T15:23:21;6.55;;;2.35;;
36423;SDS011;22458;45.328;9.514;2023-07-13T15:25:47;4.30;;;2.05;;
36423;SDS011;22458;45.328;9.514;2023-07-13T15:28:14;6.25;;;2.40;;
36423;SDS011;22458;45.328;9.514;2023-07-13T15:30:41;8.68;;;3.50;;
36423;SDS011;22458;45.328;9.514;2023-07-13T15:33:14;9.88;;;2.72;;
36423;SDS011;22458;45.328;9.514;2023-07-13T15:35:42;4.40;;;2.00;;
36423;SDS011;22458;45.328;9.514;2023-07-13T15:38:16;4.90;;;2.42;;
36423;SDS011;22458;45.328;9.514;2023-07-13T15:40:45;6.13;;;2.53;;
36423;SDS011;22458;45.328;9.514;2023-07-13T15:43:12;7.28;;;2.58;;
36423;SDS011;22458;45.328;9.514;2023-07-13T15:45:39;6.60;;;2.92;;
36423;SDS011;22458;45.328;9.514;2023-07-13T15:48:25;5.10;;;2.22;;